Time;durP1;ratioP1;P1;durP2;ratioP2;P2;SDS_P1;SDS_P2;PMS_P1;PMS_P2;Temp;Humidity;BMP_temperature;BMP_pressure;BME280_temperature;BME280_humidity;BME280_pressure;Samples;Min_cycle;Max_cycle;Signal;HPM_P1;HPM_P2
2021/09/24 00:00:16;;;;;;;31.58;4.75;;;;;;;;;;5122685;27;20508;-81
2021/09/24 00:02:42;;;;;;;27.27;3.75;;;;;;;;;;5121029;27;20088;-81
2021/09/24 00:05:09;;;;;;;21.02;3.70;;;;;;;;;;5124682;27;20059;-81
2021/09/24 00:07:35;;;;;;;29.00;3.95;;;;;;;;;;5126975;27;20448;-80
2021/09/24 00:10:01;;;;;;;26.63;4.13;;;;;;;;;;5090752;27;20047;-80
2021/09/24 00:12:27;;;;;;;24.75;4.50;;;;;;;;;;5101897;27;20062;-81
2021/09/24 00:14:53;;;;;;;26.02;4.38;;;;;;;;;;5114242;27;20168;-80
2021/09/24 00:17:19;;;;;;;28.38;4.45;;;;;;;;;;5110125;27;20042;-81
2021/09/24 00:19:45;;;;;;;21.08;3.75;;;;;;;;;;5107709;27;20047;-81
2021/09/24 00:22:11;;;;;;;33.05;4.53;;;;;;;;;;5124683;27;20055;-81
2021/09/24 00:24:37;;;;;;;28.95;4.50;;;;;;;;;;5089505;27;20071;-81
2021/09/24 00:27:05;;;;;;;29.85;4.45;;;;;;;;;;5107935;27;20089;-81
2021/09/24 00:29:31;;;;;;;29.48;4.60;;;;;;;;;;5121812;27;20129;-81
2021/09/24 00:31:57;;;;;;;28.10;4.22;;;;;;;;;;5122648;27;20040;-81
2021/09/24 00:34:25;;;;;;;30.77;4.85;;;;;;;;;;5091473;27;20043;-81
2021/09/24 00:36:51;;;;;;;26.83;3.85;;;;;;;;;;5118956;27;20393;-81
2021/09/24 00:39:17;;;;;;;27.48;3.90;;;;;;;;;;5121255;27;20062;-80
2021/09/24 00:41:43;;;;;;;28.27;4.38;;;;;;;;;;5102271;27;20040;-82
2021/09/24 00:44:09;;;;;;;24.80;3.85;;;;;;;;;;5110121;27;20043;-81
2021/09/24 00:46:35;;;;;;;19.35;3.65;;;;;;;;;;5113001;27;20058;-81
2021/09/24 00:49:01;;;;;;;26.45;3.92;;;;;;;;;;5093623;27;20134;-81
2021/09/24 00:51:27;;;;;;;35.03;4.45;;;;;;;;;;5106586;27;20485;-80
2021/09/24 00:53:53;;;;;;;24.73;3.90;;;;;;;;;;5104461;27;20123;-81
2021/09/24 00:56:21;;;;;;;23.23;4.10;;;;;;;;;;5105666;27;20047;-81
2021/09/24 00:58:47;;;;;;;28.33;4.78;;;;;;;;;;5106806;27;20134;-81
2021/09/24 01:01:14;;;;;;;29.00;4.13;;;;;;;;;;5108743;27;20060;-80
2021/09/24 01:03:40;;;;;;;24.30;3.90;;;;;;;;;;5082043;27;20144;-81
2021/09/24 01:06:06;;;;;;;22.63;3.92;;;;;;;;;;5120902;27;20109;-81
2021/09/24 01:08:33;;;;;;;24.67;4.43;;;;;;;;;;5114562;27;20082;-80
2021/09/24 01:10:59;;;;;;;21.50;3.55;;;;;;;;;;5124859;27;20395;-81
2021/09/24 01:13:25;;;;;;;25.05;4.07;;;;;;;;;;5114395;27;20479;-80
2021/09/24 01:15:51;;;;;;;29.38;3.90;;;;;;;;;;5094345;27;20047;-80
2021/09/24 01:18:17;;;;;;;20.17;3.67;;;;;;;;;;5121488;27;20035;-81
2021/09/24 01:20:43;;;;;;;29.40;4.57;;;;;;;;;;5105064;27;20479;-81
2021/09/24 01:23:09;;;;;;;25.90;3.88;;;;;;;;;;5121165;27;20471;-80
2021/09/24 01:25:36;;;;;;;24.20;3.92;;;;;;;;;;5122503;27;20130;-81
2021/09/24 01:28:02;;;;;;;24.67;4.75;;;;;;;;;;5104402;27;20529;-80
2021/09/24 01:30:28;;;;;;;25.15;4.05;;;;;;;;;;5116558;27;20069;-80
2021/09/24 01:32:54;;;;;;;24.95;3.70;;;;;;;;;;5123008;27;20046;-80
2021/09/24 01:35:20;;;;;;;27.70;4.30;;;;;;;;;;5120182;27;20043;-81
2021/09/24 01:37:46;;;;;;;23.83;3.83;;;;;;;;;;5121328;27;20820;-80
2021/09/24 01:40:14;;;;;;;23.30;3.83;;;;;;;;;;5098337;27;20393;-80
2021/09/24 01:42:41;;;;;;;21.75;3.22;;;;;;;;;;5117349;27;20079;-81
2021/09/24 01:45:08;;;;;;;21.23;3.58;;;;;;;;;;5105416;27;20039;-80
2021/09/24 01:47:34;;;;;;;23.15;3.92;;;;;;;;;;5123328;27;20436;-80
2021/09/24 01:50:01;;;;;;;26.08;4.13;;;;;;;;;;5094600;27;20449;-81
2021/09/24 01:52:28;;;;;;;26.63;3.92;;;;;;;;;;5115538;27;20054;-81
2021/09/24 01:54:55;;;;;;;21.48;4.05;;;;;;;;;;5123489;27;20462;-81
2021/09/24 01:57:21;;;;;;;20.75;3.80;;;;;;;;;;5104120;27;20091;-81
2021/09/24 01:59:47;;;;;;;27.73;4.13;;;;;;;;;;5083406;27;20111;-81
2021/09/24 02:02:13;;;;;;;21.48;3.70;;;;;;;;;;5102088;27;20055;-81
2021/09/24 02:04:39;;;;;;;28.38;4.10;;;;;;;;;;5099124;27;20043;-81
2021/09/24 02:07:06;;;;;;;21.25;3.65;;;;;;;;;;5119000;27;20084;-81
2021/09/24 02:09:32;;;;;;;26.40;4.38;;;;;;;;;;5120196;27;20052;-80
2021/09/24 02:11:59;;;;;;;26.75;4.57;;;;;;;;;;5102335;27;20502;-81
2021/09/24 02:14:25;;;;;;;22.10;3.20;;;;;;;;;;5108462;27;20047;-81
2021/09/24 02:16:51;;;;;;;25.67;4.43;;;;;;;;;;5113278;27;20034;-81
2021/09/24 02:19:17;;;;;;;28.42;4.43;;;;;;;;;;5102701;27;20079;-82
2021/09/24 02:21:43;;;;;;;29.98;4.32;;;;;;;;;;5105299;27;20039;-81
2021/09/24 02:24:09;;;;;;;26.98;4.80;;;;;;;;;;5108073;27;20137;-81
2021/09/24 02:26:35;;;;;;;34.25;4.80;;;;;;;;;;5123170;27;20053;-81
2021/09/24 02:29:01;;;;;;;29.00;3.88;;;;;;;;;;5120682;27;20042;-81
2021/09/24 02:31:27;;;;;;;40.10;5.78;;;;;;;;;;5108191;27;20053;-81
2021/09/24 02:33:53;;;;;;;33.05;4.65;;;;;;;;;;5120585;27;20046;-81
2021/09/24 02:36:19;;;;;;;25.90;4.28;;;;;;;;;;5122338;27;20079;-81
2021/09/24 02:38:45;;;;;;;30.65;5.15;;;;;;;;;;5097713;27;20038;-80
2021/09/24 02:41:12;;;;;;;20.58;3.88;;;;;;;;;;5124539;27;20050;-80
2021/09/24 02:43:38;;;;;;;29.42;4.80;;;;;;;;;;5124841;27;20045;-81
2021/09/24 02:46:04;;;;;;;28.70;4.63;;;;;;;;;;5118449;27;20481;-81
2021/09/24 02:48:30;;;;;;;23.13;3.65;;;;;;;;;;5111502;27;20063;-81
2021/09/24 02:50:56;;;;;;;19.77;4.68;;;;;;;;;;5120701;27;20407;-81
2021/09/24 02:53:23;;;;;;;25.35;4.38;;;;;;;;;;5120614;27;20039;-81
2021/09/24 02:55:49;;;;;;;26.02;3.92;;;;;;;;;;5121531;27;20066;-81
2021/09/24 02:58:15;;;;;;;24.38;5.28;;;;;;;;;;5109753;27;20452;-81
2021/09/24 03:00:41;;;;;;;18.50;4.32;;;;;;;;;;5126153;27;20061;-80
2021/09/24 03:03:07;;;;;;;29.27;4.88;;;;;;;;;;5105751;27;20435;-81
2021/09/24 03:05:35;;;;;;;30.30;4.22;;;;;;;;;;5122591;27;20038;-81
2021/09/24 03:08:01;;;;;;;26.27;4.72;;;;;;;;;;5095969;27;20129;-80
2021/09/24 03:10:27;;;;;;;23.98;4.40;;;;;;;;;;5118804;27;20490;-82
2021/09/24 03:12:53;;;;;;;24.42;4.65;;;;;;;;;;5122325;27;20540;-81
2021/09/24 03:15:19;;;;;;;36.03;4.70;;;;;;;;;;5109996;27;20103;-81
2021/09/24 03:17:46;;;;;;;23.40;4.20;;;;;;;;;;5120761;27;20043;-80
2021/09/24 03:20:12;;;;;;;20.75;3.95;;;;;;;;;;5103388;27;20457;-81
2021/09/24 03:22:38;;;;;;;19.45;4.25;;;;;;;;;;5121075;27;20505;-81
2021/09/24 03:25:05;;;;;;;22.77;4.63;;;;;;;;;;5107815;27;20054;-81
2021/09/24 03:27:31;;;;;;;25.33;4.20;;;;;;;;;;5116079;27;20055;-81
2021/09/24 03:29:57;;;;;;;23.20;4.35;;;;;;;;;;5122620;27;20489;-80
2021/09/24 03:32:23;;;;;;;17.95;3.90;;;;;;;;;;5085672;27;20042;-82
2021/09/24 03:34:50;;;;;;;23.67;4.28;;;;;;;;;;5122514;27;20047;-82
2021/09/24 03:37:16;;;;;;;20.70;4.80;;;;;;;;;;5105948;27;20062;-82
2021/09/24 03:39:43;;;;;;;18.63;3.85;;;;;;;;;;5108501;27;20101;-82
2021/09/24 03:42:09;;;;;;;21.73;4.25;;;;;;;;;;5126189;27;20443;-82
2021/09/24 03:44:36;;;;;;;17.77;4.10;;;;;;;;;;5103856;27;20489;-82
2021/09/24 03:47:02;;;;;;;22.27;3.60;;;;;;;;;;5107700;27;20043;-82
2021/09/24 03:49:28;;;;;;;23.13;3.80;;;;;;;;;;5122720;27;20039;-82
2021/09/24 03:51:55;;;;;;;19.27;4.20;;;;;;;;;;5093192;27;20078;-82
2021/09/24 03:54:21;;;;;;;15.65;3.67;;;;;;;;;;5087304;27;20458;-83
2021/09/24 03:56:47;;;;;;;18.27;3.40;;;;;;;;;;5126214;27;20121;-82
2021/09/24 03:59:13;;;;;;;18.20;4.22;;;;;;;;;;5109753;27;20050;-82
2021/09/24 04:01:40;;;;;;;23.92;3.83;;;;;;;;;;5123701;27;20141;-82
2021/09/24 04:04:06;;;;;;;24.17;3.78;;;;;;;;;;5103591;27;20041;-82
2021/09/24 04:06:32;;;;;;;18.17;3.70;;;;;;;;;;5103575;27;20089;-82
2021/09/24 04:08:58;;;;;;;17.25;3.35;;;;;;;;;;5117999;27;20039;-81
2021/09/24 04:11:24;;;;;;;20.33;3.63;;;;;;;;;;5106144;27;20108;-81
2021/09/24 04:13:51;;;;;;;19.08;3.78;;;;;;;;;;5105091;27;20150;-81
2021/09/24 04:16:17;;;;;;;16.52;3.55;;;;;;;;;;5121772;27;20046;-82
2021/09/24 04:18:43;;;;;;;15.80;3.40;;;;;;;;;;5118030;27;20416;-81
2021/09/24 04:21:09;;;;;;;14.05;3.22;;;;;;;;;;5105468;27;20047;-81
2021/09/24 04:23:36;;;;;;;16.70;3.53;;;;;;;;;;5133928;27;20046;-83
2021/09/24 04:26:03;;;;;;;16.42;3.78;;;;;;;;;;5130540;27;20039;-82
2021/09/24 04:28:29;;;;;;;19.15;3.47;;;;;;;;;;5119169;27;20175;-82
2021/09/24 04:30:55;;;;;;;21.50;3.47;;;;;;;;;;5126391;27;20039;-82
2021/09/24 04:33:21;;;;;;;16.80;3.97;;;;;;;;;;5123696;27;20031;-82
2021/09/24 04:35:47;;;;;;;19.98;4.30;;;;;;;;;;5085509;27;20085;-82
2021/09/24 04:38:14;;;;;;;20.23;3.97;;;;;;;;;;5125759;27;20039;-81
2021/09/24 04:40:40;;;;;;;23.40;4.10;;;;;;;;;;5102927;27;20100;-81
2021/09/24 04:43:06;;;;;;;16.23;3.45;;;;;;;;;;5108805;27;20054;-85
2021/09/24 04:45:32;;;;;;;13.48;3.47;;;;;;;;;;5108663;27;20043;-84
2021/09/24 04:47:58;;;;;;;20.80;4.75;;;;;;;;;;5122145;27;20061;-82
2021/09/24 04:50:24;;;;;;;16.17;4.20;;;;;;;;;;5099716;27;20130;-81
2021/09/24 04:52:50;;;;;;;16.27;3.75;;;;;;;;;;5119273;27;20070;-83
2021/09/24 04:55:17;;;;;;;17.05;3.90;;;;;;;;;;5125202;27;20510;-84
2021/09/24 04:57:43;;;;;;;16.30;4.10;;;;;;;;;;5103733;27;20103;-84
2021/09/24 05:00:11;;;;;;;17.10;3.53;;;;;;;;;;5134923;27;20047;-83
2021/09/24 05:02:37;;;;;;;19.15;4.28;;;;;;;;;;5121455;27;20057;-84
2021/09/24 05:05:04;;;;;;;22.67;4.00;;;;;;;;;;5135122;27;20042;-83
2021/09/24 05:07:30;;;;;;;19.40;4.10;;;;;;;;;;5135856;27;20095;-83
2021/09/24 05:09:56;;;;;;;16.23;3.83;;;;;;;;;;5134677;27;20046;-83
2021/09/24 05:12:22;;;;;;;19.15;4.13;;;;;;;;;;5118648;27;20051;-84
2021/09/24 05:14:48;;;;;;;18.20;3.72;;;;;;;;;;5115041;27;20046;-83
2021/09/24 05:17:14;;;;;;;19.33;4.35;;;;;;;;;;5124641;27;20043;-83
2021/09/24 05:19:40;;;;;;;17.02;4.13;;;;;;;;;;5127256;27;20043;-83
2021/09/24 05:22:06;;;;;;;16.73;3.40;;;;;;;;;;5105738;27;20097;-83
2021/09/24 05:24:32;;;;;;;24.20;4.47;;;;;;;;;;5094054;27;20460;-83
2021/09/24 05:27:00;;;;;;;19.77;4.70;;;;;;;;;;5103481;27;20081;-83
2021/09/24 05:29:26;;;;;;;16.23;3.90;;;;;;;;;;5108867;27;20562;-82
2021/09/24 05:31:52;;;;;;;21.10;4.78;;;;;;;;;;5117959;27;20087;-81
2021/09/24 05:34:19;;;;;;;17.77;4.10;;;;;;;;;;5135763;27;20497;-83
2021/09/24 05:36:45;;;;;;;17.98;3.70;;;;;;;;;;5119988;27;20043;-83
2021/09/24 05:39:12;;;;;;;19.92;4.15;;;;;;;;;;5128361;27;20103;-83
2021/09/24 05:41:38;;;;;;;17.17;4.10;;;;;;;;;;5117827;27;20095;-81
2021/09/24 05:44:05;;;;;;;17.98;4.28;;;;;;;;;;5111625;27;20050;-86
2021/09/24 05:46:31;;;;;;;22.55;4.53;;;;;;;;;;5117589;27;20100;-82
2021/09/24 05:48:57;;;;;;;14.50;4.20;;;;;;;;;;5111744;27;20053;-82
2021/09/24 05:51:23;;;;;;;16.15;5.20;;;;;;;;;;5118688;27;20462;-83
2021/09/24 05:53:49;;;;;;;22.40;5.45;;;;;;;;;;5116088;27;20423;-82
2021/09/24 05:56:15;;;;;;;27.25;5.22;;;;;;;;;;5123639;27;20038;-83
2021/09/24 05:58:41;;;;;;;18.40;5.75;;;;;;;;;;5124160;27;20042;-82
2021/09/24 06:01:08;;;;;;;20.45;5.75;;;;;;;;;;5104971;27;20125;-82
2021/09/24 06:03:34;;;;;;;24.00;6.38;;;;;;;;;;5127735;27;20039;-83
2021/09/24 06:06:00;;;;;;;28.17;6.22;;;;;;;;;;5104523;27;20101;-82
2021/09/24 06:08:27;;;;;;;24.55;6.53;;;;;;;;;;5109131;27;20039;-81
2021/09/24 06:10:54;;;;;;;19.42;6.00;;;;;;;;;;5111492;27;20047;-83
2021/09/24 06:13:20;;;;;;;22.00;6.00;;;;;;;;;;5107375;27;20129;-82
2021/09/24 06:15:48;;;;;;;25.83;6.88;;;;;;;;;;5119492;27;20414;-82
2021/09/24 06:18:14;;;;;;;23.88;6.85;;;;;;;;;;5126036;27;20121;-82
2021/09/24 06:20:40;;;;;;;20.67;7.35;;;;;;;;;;5118430;27;20070;-82
2021/09/24 06:23:06;;;;;;;29.95;7.93;;;;;;;;;;5121790;27;20399;-82
2021/09/24 06:25:32;;;;;;;26.48;8.43;;;;;;;;;;5111361;27;20043;-82
2021/09/24 06:27:59;;;;;;;24.58;6.78;;;;;;;;;;5112066;27;20065;-82
2021/09/24 06:30:25;;;;;;;20.73;8.07;;;;;;;;;;5111749;27;20045;-82
2021/09/24 06:32:52;;;;;;;30.35;7.93;;;;;;;;;;5114085;27;20030;-81
2021/09/24 06:35:19;;;;;;;27.25;8.65;;;;;;;;;;5135014;27;20122;-83
2021/09/24 06:37:45;;;;;;;23.02;7.47;;;;;;;;;;5111232;27;20121;-82
2021/09/24 06:40:11;;;;;;;24.00;8.00;;;;;;;;;;5131334;27;20046;-82
2021/09/24 06:42:38;;;;;;;28.70;7.70;;;;;;;;;;5118481;27;20047;-82
2021/09/24 06:45:05;;;;;;;38.33;8.73;;;;;;;;;;5124275;27;20035;-81
2021/09/24 06:47:31;;;;;;;25.45;8.05;;;;;;;;;;5124694;27;20038;-80
2021/09/24 06:49:57;;;;;;;30.15;7.78;;;;;;;;;;5095341;27;20051;-78
2021/09/24 06:52:24;;;;;;;18.33;8.10;;;;;;;;;;5116727;27;20035;-81
2021/09/24 06:54:50;;;;;;;25.80;8.07;;;;;;;;;;5118061;27;20069;-81
2021/09/24 06:57:16;;;;;;;30.27;8.38;;;;;;;;;;5109842;27;20806;-81
2021/09/24 06:59:42;;;;;;;22.35;8.30;;;;;;;;;;5121947;27;20051;-80
2021/09/24 07:02:08;;;;;;;26.25;8.27;;;;;;;;;;5122752;27;20038;-81
2021/09/24 07:04:35;;;;;;;28.05;7.50;;;;;;;;;;5117062;27;20038;-81
2021/09/24 07:07:01;;;;;;;34.97;8.40;;;;;;;;;;5114241;27;20043;-80
2021/09/24 07:09:27;;;;;;;22.50;7.82;;;;;;;;;;5107453;27;20420;-81
2021/09/24 07:11:53;;;;;;;28.65;7.80;;;;;;;;;;5098656;27;20133;-80
2021/09/24 07:14:20;;;;;;;25.23;8.20;;;;;;;;;;5122435;27;20373;-81
2021/09/24 07:16:49;;;;;;;26.90;8.95;;;;;;;;;;5123510;27;20039;-77
2021/09/24 07:19:15;;;;;;;26.80;8.35;;;;;;;;;;5110113;27;20039;-81
2021/09/24 07:21:42;;;;;;;23.15;7.95;;;;;;;;;;5110167;27;20091;-80
2021/09/24 07:24:08;;;;;;;22.52;7.90;;;;;;;;;;5106298;27;20078;-78
2021/09/24 07:26:34;;;;;;;27.15;7.70;;;;;;;;;;5122315;27;20047;-78
2021/09/24 07:29:01;;;;;;;22.10;7.65;;;;;;;;;;5141964;27;20469;-77
2021/09/24 07:31:27;;;;;;;31.27;8.20;;;;;;;;;;5127703;27;20473;-77
2021/09/24 07:33:54;;;;;;;26.55;7.80;;;;;;;;;;5105587;27;20037;-77
2021/09/24 07:36:20;;;;;;;17.63;7.57;;;;;;;;;;5126777;27;20073;-78
2021/09/24 07:38:47;;;;;;;25.10;7.57;;;;;;;;;;5116435;27;20043;-78
2021/09/24 07:41:14;;;;;;;25.20;8.07;;;;;;;;;;5102770;27;20038;-78
2021/09/24 07:43:40;;;;;;;23.23;7.40;;;;;;;;;;5121056;27;20050;-81
2021/09/24 07:46:06;;;;;;;23.27;8.23;;;;;;;;;;5110511;27;20043;-81
2021/09/24 07:48:32;;;;;;;28.25;8.20;;;;;;;;;;5110269;27;20039;-81
2021/09/24 07:50:59;;;;;;;17.77;7.32;;;;;;;;;;5104213;28;20069;-78
2021/09/24 07:53:25;;;;;;;29.77;8.82;;;;;;;;;;5112390;27;20031;-79
2021/09/24 07:55:51;;;;;;;28.90;8.27;;;;;;;;;;5121418;27;20035;-81
2021/09/24 07:58:17;;;;;;;26.52;7.82;;;;;;;;;;5126320;27;20541;-77
2021/09/24 08:00:43;;;;;;;29.45;8.95;;;;;;;;;;5119529;27;20035;-77
2021/09/24 08:03:09;;;;;;;29.45;8.95;;;;;;;;;;5128017;27;20069;-77
2021/09/24 08:05:35;;;;;;;22.10;8.07;;;;;;;;;;5109977;27;20382;-79
2021/09/24 08:08:01;;;;;;;18.20;8.48;;;;;;;;;;5123700;27;20050;-78
2021/09/24 08:10:28;;;;;;;27.73;8.88;;;;;;;;;;5103207;27;20055;-78
2021/09/24 08:12:55;;;;;;;25.60;8.45;;;;;;;;;;5096573;27;20107;-78
2021/09/24 08:15:21;;;;;;;18.80;8.55;;;;;;;;;;5087278;27;20047;-79
2021/09/24 08:17:47;;;;;;;26.65;9.05;;;;;;;;;;5107871;27;20079;-79
2021/09/24 08:20:14;;;;;;;26.45;8.02;;;;;;;;;;5107260;27;20078;-78
2021/09/24 08:22:40;;;;;;;29.48;9.30;;;;;;;;;;5124969;27;20070;-79
2021/09/24 08:25:09;;;;;;;29.45;9.20;;;;;;;;;;5124832;27;20397;-79
2021/09/24 08:27:35;;;;;;;27.67;9.05;;;;;;;;;;5120120;27;20370;-79
2021/09/24 08:30:02;;;;;;;26.80;9.18;;;;;;;;;;5123866;27;20047;-79
2021/09/24 08:32:28;;;;;;;22.80;9.02;;;;;;;;;;5123348;27;20642;-78
2021/09/24 08:34:54;;;;;;;24.80;9.70;;;;;;;;;;5098206;27;20122;-78
2021/09/24 08:37:20;;;;;;;23.95;9.25;;;;;;;;;;5106926;27;20051;-79
2021/09/24 08:39:47;;;;;;;27.60;9.73;;;;;;;;;;5118890;27;20042;-79
2021/09/24 08:42:13;;;;;;;23.40;9.45;;;;;;;;;;5119163;27;20141;-78
2021/09/24 08:44:39;;;;;;;25.67;9.57;;;;;;;;;;5125427;27;20047;-79
2021/09/24 08:47:05;;;;;;;28.73;10.35;;;;;;;;;;5127004;27;20055;-78
2021/09/24 08:49:31;;;;;;;31.00;9.38;;;;;;;;;;5102769;27;20058;-78
2021/09/24 08:51:57;;;;;;;24.98;8.88;;;;;;;;;;5107993;27;20042;-79
2021/09/24 08:54:23;;;;;;;32.50;9.18;;;;;;;;;;5116004;27;20133;-79
2021/09/24 08:56:49;;;;;;;21.48;8.65;;;;;;;;;;5125676;27;20103;-79
2021/09/24 08:59:16;;;;;;;34.08;9.98;;;;;;;;;;5108767;27;20084;-78
2021/09/24 09:01:58;;;;;;;22.63;8.48;;;;;;;;;;5108297;27;20062;-78
2021/09/24 09:04:34;;;;;;;25.67;8.75;;;;;;;;;;5136319;27;20061;-79
2021/09/24 09:07:08;;;;;;;24.95;9.52;;;;;;;;;;5135792;27;20039;-78
2021/09/24 09:09:34;;;;;;;;;;;;;;;;;;5125048;27;20392;-80
2021/09/24 09:12:09;;;;;;;20.60;8.60;;;;;;;;;;5127586;27;20015;-79
2021/09/24 09:14:35;;;;;;;26.92;9.27;;;;;;;;;;5107406;28;20086;-79
2021/09/24 09:17:01;;;;;;;19.75;8.30;;;;;;;;;;5090119;28;20048;-79
2021/09/24 09:19:27;;;;;;;20.17;7.43;;;;;;;;;;5105102;28;20050;-79
2021/09/24 09:21:53;;;;;;;17.55;8.43;;;;;;;;;;5097174;27;20420;-79
2021/09/24 09:24:23;;;;;;;22.20;7.68;;;;;;;;;;5109449;28;20046;-79
2021/09/24 09:27:09;;;;;;;20.02;6.80;;;;;;;;;;5110479;28;20069;-79
2021/09/24 09:29:35;;;;;;;19.80;7.32;;;;;;;;;;5091920;28;20083;-79
2021/09/24 09:32:02;;;;;;;26.05;7.63;;;;;;;;;;5088011;28;20044;-79
2021/09/24 09:34:33;;;;;;;17.42;5.95;;;;;;;;;;5091030;28;20087;-79
2021/09/24 09:36:59;;;;;;;13.05;6.20;;;;;;;;;;5110542;28;20043;-81
2021/09/24 09:39:29;;;;;;;17.02;5.70;;;;;;;;;;5092367;28;20043;-78
2021/09/24 09:41:56;;;;;;;15.73;6.10;;;;;;;;;;5111764;28;20048;-78
2021/09/24 09:44:25;;;;;;;17.52;5.72;;;;;;;;;;5096541;28;20047;-78
2021/09/24 09:46:51;;;;;;;20.20;5.35;;;;;;;;;;5089877;28;20075;-78
2021/09/24 09:49:18;;;;;;;12.18;4.57;;;;;;;;;;5073554;28;20044;-78
2021/09/24 09:51:46;;;;;;;18.10;5.55;;;;;;;;;;5098576;28;20058;-80
2021/09/24 09:54:25;;;;;;;16.17;5.05;;;;;;;;;;5094380;28;20036;-80
2021/09/24 09:56:51;;;;;;;11.70;4.50;;;;;;;;;;5097231;28;20042;-88
2021/09/24 09:59:28;;;;;;;18.08;4.97;;;;;;;;;;5086385;28;20040;-80
2021/09/24 10:02:08;;;;;;;20.88;4.68;;;;;;;;;;5104948;28;20071;-81
2021/09/24 10:04:41;;;;;;;16.15;4.55;;;;;;;;;;5094208;28;20490;-81
2021/09/24 10:07:13;;;;;;;13.73;4.05;;;;;;;;;;5086204;28;20085;-78
2021/09/24 10:09:39;;;;;;;18.40;4.75;;;;;;;;;;5091560;28;20464;-79
2021/09/24 10:12:19;;;;;;;17.83;4.47;;;;;;;;;;5083302;28;20663;-77
2021/09/24 10:14:46;;;;;;;11.52;4.78;;;;;;;;;;5085937;28;20051;-80
2021/09/24 10:17:12;;;;;;;11.13;4.30;;;;;;;;;;5108318;28;20063;-78
2021/09/24 10:19:39;;;;;;;14.80;4.43;;;;;;;;;;5095281;28;20117;-82
2021/09/24 10:22:05;;;;;;;12.57;4.40;;;;;;;;;;5102914;28;20437;-83
2021/09/24 10:24:31;;;;;;;12.35;4.38;;;;;;;;;;5066709;28;20660;-84
2021/09/24 10:26:59;;;;;;;11.20;3.95;;;;;;;;;;5095042;28;20047;-83
2021/09/24 10:29:30;;;;;;;11.93;4.43;;;;;;;;;;5109272;28;20544;-88
2021/09/24 10:32:11;;;;;;;13.70;4.53;;;;;;;;;;5112514;27;20101;-83
2021/09/24 10:34:50;;;;;;;13.82;4.40;;;;;;;;;;5077432;28;20050;-84
2021/09/24 10:37:17;;;;;;;11.18;4.57;;;;;;;;;;5093851;28;20086;-89
2021/09/24 10:39:45;;;;;;;12.00;4.07;;;;;;;;;;5100284;28;20044;-82
2021/09/24 10:42:30;;;;;;;13.00;4.47;;;;;;;;;;5078867;28;20495;-84
2021/09/24 10:44:57;;;;;;;14.93;4.13;;;;;;;;;;5098135;28;20084;-87
2021/09/24 10:47:42;;;;;;;13.23;4.68;;;;;;;;;;5098626;28;20135;-85
2021/09/24 10:50:27;;;;;;;10.73;4.22;;;;;;;;;;5077722;28;20060;-84
2021/09/24 10:53:09;;;;;;;10.57;4.50;;;;;;;;;;5097811;28;20478;-79
2021/09/24 10:55:40;;;;;;;11.20;4.63;;;;;;;;;;5097747;28;20043;-83
2021/09/24 10:58:06;;;;;;;16.25;4.32;;;;;;;;;;5097327;28;20085;-79
2021/09/24 11:00:34;;;;;;;12.57;4.18;;;;;;;;;;5083086;28;20447;-94
2021/09/24 11:03:16;;;;;;;11.82;4.43;;;;;;;;;;5088334;28;20036;-81
2021/09/24 11:06:04;;;;;;;10.07;4.25;;;;;;;;;;5105461;28;20047;-81
2021/09/24 11:08:30;;;;;;;10.35;4.13;;;;;;;;;;5103041;28;20044;-81
2021/09/24 11:11:11;;;;;;;10.32;4.35;;;;;;;;;;5086083;28;20048;-80
2021/09/24 11:13:41;;;;;;;10.63;4.38;;;;;;;;;;5109711;27;20516;-82
2021/09/24 11:16:10;;;;;;;13.82;4.75;;;;;;;;;;5113663;27;20474;-84
2021/09/24 11:18:55;;;;;;;13.48;4.53;;;;;;;;;;5101571;27;20055;-82
2021/09/24 11:21:23;;;;;;;14.93;4.88;;;;;;;;;;5104174;27;20544;-81
2021/09/24 11:23:54;;;;;;;11.65;4.50;;;;;;;;;;5102410;28;20058;-79
2021/09/24 11:26:22;;;;;;;12.25;4.78;;;;;;;;;;5112326;27;20043;-83
2021/09/24 11:29:02;;;;;;;12.25;4.50;;;;;;;;;;5115746;27;20608;-83
2021/09/24 11:31:47;;;;;;;10.75;4.55;;;;;;;;;;5116525;27;20070;-81
2021/09/24 11:34:33;;;;;;;14.88;4.82;;;;;;;;;;5098953;28;20035;-80
2021/09/24 11:37:04;;;;;;;15.50;4.53;;;;;;;;;;5108533;28;20043;-88
2021/09/24 11:39:30;;;;;;;13.43;4.30;;;;;;;;;;5098543;27;20088;-81
2021/09/24 11:42:10;;;;;;;12.80;5.15;;;;;;;;;;5097294;27;20051;-80
2021/09/24 11:44:37;;;;;;;10.82;3.90;;;;;;;;;;5110398;27;20047;-81
2021/09/24 11:47:16;;;;;;;11.32;4.07;;;;;;;;;;5109600;28;20091;-81
2021/09/24 11:49:55;;;;;;;10.85;3.97;;;;;;;;;;5095862;28;20043;-81
2021/09/24 11:52:22;;;;;;;10.88;3.60;;;;;;;;;;5112205;28;20384;-80
2021/09/24 11:54:48;;;;;;;9.70;3.72;;;;;;;;;;5099290;28;20127;-79
2021/09/24 11:57:15;;;;;;;9.40;3.55;;;;;;;;;;5100044;28;20066;-80
2021/09/24 11:59:41;;;;;;;9.13;3.70;;;;;;;;;;5112570;28;20039;-78
2021/09/24 12:02:07;;;;;;;8.60;3.00;;;;;;;;;;5113662;28;20127;-79
2021/09/24 12:04:33;;;;;;;10.35;2.95;;;;;;;;;;5087932;28;20051;-79
2021/09/24 12:06:59;;;;;;;8.65;3.40;;;;;;;;;;5110399;28;20047;-83
2021/09/24 12:09:26;;;;;;;13.65;3.17;;;;;;;;;;5105605;28;20153;-80
2021/09/24 12:11:53;;;;;;;9.40;3.22;;;;;;;;;;5110822;28;20051;-82
2021/09/24 12:14:20;;;;;;;8.98;3.45;;;;;;;;;;5108086;27;20103;-80
2021/09/24 12:16:49;;;;;;;9.82;3.80;;;;;;;;;;5093790;28;20054;-79
2021/09/24 12:19:16;;;;;;;10.65;3.10;;;;;;;;;;5102740;28;20050;-80
2021/09/24 12:21:48;;;;;;;8.20;3.03;;;;;;;;;;5101540;28;20051;-80
2021/09/24 12:24:15;;;;;;;6.38;2.97;;;;;;;;;;5091381;28;20040;-80
2021/09/24 12:27:02;;;;;;;8.63;2.83;;;;;;;;;;5116114;28;20070;-79
2021/09/24 12:29:28;;;;;;;8.60;2.92;;;;;;;;;;5125237;28;20039;-80
2021/09/24 12:31:56;;;;;;;11.23;3.38;;;;;;;;;;5120906;28;20048;-80
2021/09/24 12:34:39;;;;;;;8.27;3.35;;;;;;;;;;5122750;28;20494;-81
2021/09/24 12:37:05;;;;;;;7.40;3.03;;;;;;;;;;5122888;28;20368;-80
2021/09/24 12:39:33;;;;;;;7.90;3.10;;;;;;;;;;5120215;28;20054;-82
2021/09/24 12:42:03;;;;;;;9.88;3.90;;;;;;;;;;5111162;28;20050;-82
2021/09/24 12:44:30;;;;;;;9.05;3.30;;;;;;;;;;5127078;28;20072;-81
2021/09/24 12:46:58;;;;;;;13.75;3.70;;;;;;;;;;5110543;28;20049;-86
2021/09/24 12:49:24;;;;;;;9.40;3.47;;;;;;;;;;5113900;28;20136;-83
2021/09/24 12:51:51;;;;;;;5.93;3.17;;;;;;;;;;5112318;28;20544;-81
2021/09/24 12:54:18;;;;;;;7.55;3.17;;;;;;;;;;5107711;28;20124;-82
2021/09/24 12:56:45;;;;;;;9.30;4.22;;;;;;;;;;5100607;28;20047;-82
2021/09/24 12:59:11;;;;;;;12.77;3.58;;;;;;;;;;5119858;27;20271;-85
2021/09/24 13:01:38;;;;;;;8.93;3.00;;;;;;;;;;5103498;27;20051;-85
2021/09/24 13:04:04;;;;;;;8.65;3.25;;;;;;;;;;5107499;27;20432;-80
2021/09/24 13:06:30;;;;;;;9.18;3.70;;;;;;;;;;5102859;28;20130;-82
2021/09/24 13:08:59;;;;;;;8.30;4.15;;;;;;;;;;5105661;27;20464;-85
2021/09/24 13:11:27;;;;;;;10.95;3.70;;;;;;;;;;5121184;27;20046;-87
2021/09/24 13:13:53;;;;;;;9.63;3.40;;;;;;;;;;5127826;27;20074;-85
2021/09/24 13:16:20;;;;;;;11.43;3.67;;;;;;;;;;5099895;28;20047;-90
2021/09/24 13:18:47;;;;;;;5.45;2.88;;;;;;;;;;5090302;28;20055;-82
2021/09/24 13:21:15;;;;;;;7.70;2.90;;;;;;;;;;5086713;28;20043;-83
2021/09/24 13:23:45;;;;;;;7.95;2.95;;;;;;;;;;5097004;27;20088;-84
2021/09/24 13:26:11;;;;;;;7.15;2.80;;;;;;;;;;5112611;27;20047;-83
2021/09/24 13:28:37;;;;;;;11.82;3.17;;;;;;;;;;5088715;28;20051;-82
2021/09/24 13:31:03;;;;;;;7.20;2.67;;;;;;;;;;5102890;27;20063;-81
2021/09/24 13:33:29;;;;;;;6.88;3.35;;;;;;;;;;5113134;27;20452;-83
2021/09/24 13:35:55;;;;;;;5.35;2.40;;;;;;;;;;5100671;27;20050;-84
2021/09/24 13:38:21;;;;;;;6.95;2.97;;;;;;;;;;5089713;28;20043;-85
2021/09/24 13:40:47;;;;;;;8.18;2.60;;;;;;;;;;5106259;27;20059;-82
2021/09/24 13:43:13;;;;;;;10.02;2.42;;;;;;;;;;5092622;28;20096;-82
2021/09/24 13:45:40;;;;;;;8.02;2.58;;;;;;;;;;5093310;28;20075;-87
2021/09/24 13:48:06;;;;;;;5.88;2.33;;;;;;;;;;5091465;27;20054;-86
2021/09/24 13:50:32;;;;;;;7.13;2.20;;;;;;;;;;5094087;27;20048;-85
2021/09/24 13:52:59;;;;;;;10.50;2.58;;;;;;;;;;5115362;27;20039;-87
2021/09/24 13:55:25;;;;;;;5.38;2.25;;;;;;;;;;5112528;27;20508;-87
2021/09/24 13:57:51;;;;;;;5.38;2.60;;;;;;;;;;5102583;27;20501;-85
2021/09/24 14:00:17;;;;;;;7.95;2.47;;;;;;;;;;5095897;27;20448;-83
2021/09/24 14:02:44;;;;;;;6.07;1.98;;;;;;;;;;5109107;27;20071;-82
2021/09/24 14:05:11;;;;;;;9.40;2.78;;;;;;;;;;5103632;28;20564;-85
2021/09/24 14:07:37;;;;;;;8.05;2.70;;;;;;;;;;5115143;27;20136;-85
2021/09/24 14:10:04;;;;;;;8.15;2.78;;;;;;;;;;5105040;28;20250;-82
2021/09/24 14:12:30;;;;;;;6.85;2.83;;;;;;;;;;5109851;27;20374;-86
2021/09/24 14:14:56;;;;;;;5.93;2.90;;;;;;;;;;5096353;27;20046;-87
2021/09/24 14:17:22;;;;;;;10.00;2.90;;;;;;;;;;5105484;27;20051;-81
2021/09/24 14:19:49;;;;;;;7.47;2.50;;;;;;;;;;5120459;27;20035;-82
2021/09/24 14:22:15;;;;;;;6.95;2.50;;;;;;;;;;5110740;27;20047;-84
2021/09/24 14:24:41;;;;;;;7.18;2.53;;;;;;;;;;5104102;27;20050;-81
2021/09/24 14:27:08;;;;;;;7.78;2.22;;;;;;;;;;5091721;27;20054;-79
2021/09/24 14:29:37;;;;;;;5.90;2.35;;;;;;;;;;5125537;27;20461;-78
2021/09/24 14:32:03;;;;;;;6.35;2.42;;;;;;;;;;5115849;27;20046;-79